This is the latest recevied weather packets stored in our database for station/object F8KGK-5. If no packets are shown the sender has not sent any weather packets the latest 10 day(s).
| Time | Temp. | Humidity | Pressure | Rain* | Wind** | Luminosity | Snow |
|---|---|---|---|---|---|---|---|
| 1787693854 | 18.33° C | 85% | 1005.6 hPa | 0.51 mm | - | - | - |
| 1787692053 | 18.33° C | 84% | 1006 hPa | 1.52 mm | - | - | - |
| 1787690253 | 19.44° C | 80% | 1006.3 hPa | 1.02 mm | - | - | - |
| 1787688454 | 22.22° C | 67% | 1005.6 hPa | 0 mm | - | - | - |
| 1787686653 | 23.33° C | 59% | 1004.6 hPa | 0 mm | - | - | - |
| 1787684853 | 23.89° C | 55% | 1004.4 hPa | 0 mm | - | - | - |
| 1787683054 | 24.44° C | 52% | 1003.9 hPa | 0 mm | - | - | - |
| 1787681253 | 25.56° C | 50% | 1003.9 hPa | 0 mm | - | - | - |
| 1787679453 | 26.67° C | 47% | 1003.7 hPa | 0 mm | - | - | - |
| 1787677654 | 28.33° C | 45% | 1003.7 hPa | 0 mm | - | - | - |
| 1787675854 | 28.33° C | 45% | 1003.6 hPa | 0 mm | - | - | - |
| 1787674052 | 28.33° C | 44% | 1003.7 hPa | 0 mm | - | - | - |
| 1787672254 | 28.33° C | 44% | 1003.8 hPa | 0 mm | - | - | - |
| 1787670453 | 28.33° C | 44% | 1004 hPa | 0 mm | - | - | - |
| 1787668653 | 35° C | 34% | 1004.1 hPa | 0 mm | - | - | - |
| 1787666853 | 35° C | 34% | 1004.1 hPa | 0 mm | - | - | - |
| 1787665053 | 33.89° C | 34% | 1004.2 hPa | 0 mm | - | - | - |
| 1787663254 | 35.56° C | 33% | 1004.4 hPa | 0 mm | - | - | - |
| 1787661453 | 31.67° C | 37% | 1004.5 hPa | 0 mm | - | - | - |
| 1787659653 | 27.78° C | 45% | 1004.5 hPa | 0 mm | - | - | - |
| 1787657853 | 23.89° C | 51% | 1004.6 hPa | 0 mm | - | - | - |
| 1787656054 | 22.78° C | 50% | 1004.6 hPa | 0 mm | - | - | - |
| 1787654252 | 25° C | 46% | 1004.7 hPa | 0 mm | - | - | - |
| 1787652452 | 28.33° C | 42% | 1004.5 hPa | 0 mm | - | - | - |
| 1787650654 | 26.11° C | 49% | 1004.6 hPa | 0 mm | - | - | - |
* Rain latest hour (hover to see other rain measurements)
** Current wind speed in m/s (hover to see current wind gust speed)